sensor_id;sensor_type;location;lat;lon;timestamp;pressure;altitude;pressure_sealevel;temperature;humidity
53689;BME280;39583;54.682;30.662;2024-02-15T07:11:01;100535.75;;;-1.68;100.00
53689;BME280;39583;54.682;30.662;2024-02-15T07:13:35;100533.63;;;-1.52;100.00
53689;BME280;39583;54.682;30.662;2024-02-15T07:16:07;100536.66;;;-1.34;100.00
53689;BME280;39583;54.682;30.662;2024-02-15T07:18:35;100549.19;;;-1.13;100.00
53689;BME280;39583;54.682;30.662;2024-02-15T07:21:03;100552.19;;;-0.96;100.00
53689;BME280;39583;54.682;30.662;2024-02-15T07:23:36;100550.28;;;-0.82;100.00
53689;BME280;39583;54.682;30.662;2024-02-15T07:26:04;100549.31;;;-0.70;100.00
53689;BME280;39583;54.682;30.662;2024-02-15T07:28:32;100561.81;;;-0.61;100.00
53689;BME280;39583;54.682;30.662;2024-02-15T07:31:00;100549.56;;;-0.51;100.00
53689;BME280;39583;54.682;30.662;2024-02-15T07:33:30;100551.69;;;-0.45;100.00
53689;BME280;39583;54.682;30.662;2024-02-15T07:35:58;100553.25;;;-0.31;100.00
53689;BME280;39583;54.682;30.662;2024-02-15T07:38:26;100552.97;;;-0.28;100.00
53689;BME280;39583;54.682;30.662;2024-02-15T07:40:53;100560.44;;;-0.22;100.00
53689;BME280;39583;54.682;30.662;2024-02-15T07:43:21;100556.56;;;-0.18;100.00
53689;BME280;39583;54.682;30.662;2024-02-15T07:45:48;100556.19;;;-0.13;100.00
53689;BME280;39583;54.682;30.662;2024-02-15T07:48:16;100556.28;;;-0.04;100.00
53689;BME280;39583;54.682;30.662;2024-02-15T07:50:44;100559.44;;;0.02;100.00
53689;BME280;39583;54.682;30.662;2024-02-15T07:53:12;100557.59;;;0.13;100.00
53689;BME280;39583;54.682;30.662;2024-02-15T07:55:41;100565.88;;;0.09;100.00
53689;BME280;39583;54.682;30.662;2024-02-15T07:58:11;100560.09;;;0.15;100.00
53689;BME280;39583;54.682;30.662;2024-02-15T08:00:40;100563.91;;;0.22;100.00
53689;BME280;39583;54.682;30.662;2024-02-15T08:03:07;100568.19;;;0.34;100.00
53689;BME280;39583;54.682;30.662;2024-02-15T08:05:35;100572.75;;;0.43;100.00
53689;BME280;39583;54.682;30.662;2024-02-15T08:08:05;100567.69;;;0.40;100.00
53689;BME280;39583;54.682;30.662;2024-02-15T08:10:33;100575.56;;;0.31;100.00
53689;BME280;39583;54.682;30.662;2024-02-15T08:13:01;100574.50;;;0.22;100.00
53689;BME280;39583;54.682;30.662;2024-02-15T08:15:32;100575.06;;;0.05;100.00
53689;BME280;39583;54.682;30.662;2024-02-15T08:18:00;100577.34;;;-0.02;100.00
53689;BME280;39583;54.682;30.662;2024-02-15T08:20:33;100583.44;;;0.10;100.00
53689;BME280;39583;54.682;30.662;2024-02-15T08:23:01;100577.84;;;0.24;100.00
53689;BME280;39583;54.682;30.662;2024-02-15T08:25:29;100582.38;;;0.44;100.00
53689;BME280;39583;54.682;30.662;2024-02-15T08:27:58;100581.47;;;0.55;100.00
53689;BME280;39583;54.682;30.662;2024-02-15T08:30:32;100574.69;;;0.62;100.00
53689;BME280;39583;54.682;30.662;2024-02-15T08:33:00;100583.69;;;0.71;100.00
53689;BME280;39583;54.682;30.662;2024-02-15T08:35:28;100590.34;;;0.65;100.00
53689;BME280;39583;54.682;30.662;2024-02-15T08:37:56;100588.97;;;0.71;100.00
53689;BME280;39583;54.682;30.662;2024-02-15T08:40:23;100590.22;;;0.67;100.00
53689;BME280;39583;54.682;30.662;2024-02-15T08:42:53;100588.75;;;0.63;100.00
53689;BME280;39583;54.682;30.662;2024-02-15T08:45:20;100593.50;;;0.59;100.00
53689;BME280;39583;54.682;30.662;2024-02-15T08:47:49;100596.00;;;0.61;100.00
53689;BME280;39583;54.682;30.662;2024-02-15T08:50:22;100593.16;;;0.73;100.00
53689;BME280;39583;54.682;30.662;2024-02-15T08:52:51;100598.47;;;0.73;100.00
53689;BME280;39583;54.682;30.662;2024-02-15T08:55:18;100601.13;;;0.73;100.00
53689;BME280;39583;54.682;30.662;2024-02-15T08:57:51;100606.22;;;0.86;100.00
53689;BME280;39583;54.682;30.662;2024-02-15T09:00:19;100608.13;;;0.95;100.00
53689;BME280;39583;54.682;30.662;2024-02-15T09:02:54;100610.38;;;1.00;100.00
53689;BME280;39583;54.682;30.662;2024-02-15T09:05:21;100612.81;;;1.12;100.00
53689;BME280;39583;54.682;30.662;2024-02-15T09:07:49;100605.13;;;1.09;100.00
53689;BME280;39583;54.682;30.662;2024-02-15T09:10:18;100615.41;;;1.24;100.00
53689;BME280;39583;54.682;30.662;2024-02-15T09:12:46;100619.03;;;1.23;100.00
53689;BME280;39583;54.682;30.662;2024-02-15T09:15:17;100620.84;;;1.22;100.00
53689;BME280;39583;54.682;30.662;2024-02-15T09:17:48;100616.03;;;1.16;100.00
53689;BME280;39583;54.682;30.662;2024-02-15T09:20:17;100608.28;;;1.03;100.00
53689;BME280;39583;54.682;30.662;2024-02-15T09:22:49;100630.03;;;1.18;100.00
53689;BME280;39583;54.682;30.662;2024-02-15T09:25:18;100606.47;;;1.25;100.00
53689;BME280;39583;54.682;30.662;2024-02-15T09:27:48;100626.28;;;1.51;100.00
53689;BME280;39583;54.682;30.662;2024-02-15T09:30:23;100625.16;;;1.44;100.00
53689;BME280;39583;54.682;30.662;2024-02-15T09:33:14;100623.16;;;1.36;100.00
53689;BME280;39583;54.682;30.662;2024-02-15T09:35:45;100622.59;;;1.42;100.00
53689;BME280;39583;54.682;30.662;2024-02-15T09:38:28;100626.00;;;1.54;100.00
53689;BME280;39583;54.682;30.662;2024-02-15T09:40:59;100556.84;;;1.15;100.00
53689;BME280;39583;54.682;30.662;2024-02-15T09:43:36;100610.69;;;1.67;100.00
53689;BME280;39583;54.682;30.662;2024-02-15T09:46:10;100561.53;;;1.33;100.00
53689;BME280;39583;54.682;30.662;2024-02-15T09:48:45;100627.34;;;1.69;100.00
53689;BME280;39583;54.682;30.662;2024-02-15T09:51:21;100640.78;;;1.77;100.00
53689;BME280;39583;54.682;30.662;2024-02-15T09:53:53;100621.78;;;1.82;100.00
53689;BME280;39583;54.682;30.662;2024-02-15T09:56:28;100624.47;;;1.92;100.00
53689;BME280;39583;54.682;30.662;2024-02-15T09:58:59;100625.50;;;2.10;100.00
53689;BME280;39583;54.682;30.662;2024-02-15T10:01:33;100622.84;;;2.10;100.00
53689;BME280;39583;54.682;30.662;2024-02-15T10:04:05;100612.22;;;2.10;100.00
53689;BME280;39583;54.682;30.662;2024-02-15T10:06:39;100614.03;;;2.19;100.00
53689;BME280;39583;54.682;30.662;2024-02-15T10:09:29;100611.69;;;2.35;100.00
53689;BME280;39583;54.682;30.662;2024-02-15T10:12:07;100610.44;;;2.49;100.00
53689;BME280;39583;54.682;30.662;2024-02-15T10:14:48;100613.34;;;2.56;100.00
53689;BME280;39583;54.682;30.662;2024-02-15T10:17:22;100615.91;;;2.48;100.00
53689;BME280;39583;54.682;30.662;2024-02-15T10:20:06;100610.28;;;2.51;100.00
53689;BME280;39583;54.682;30.662;2024-02-15T10:22:35;100608.47;;;2.61;100.00
53689;BME280;39583;54.682;30.662;2024-02-15T10:25:22;100610.84;;;2.74;100.00
53689;BME280;39583;54.682;30.662;2024-02-15T10:28:10;100614.34;;;2.64;100.00
53689;BME280;39583;54.682;30.662;2024-02-15T10:30:41;100619.25;;;2.40;100.00
53689;BME280;39583;54.682;30.662;2024-02-15T10:33:27;100617.41;;;2.31;100.00
53689;BME280;39583;54.682;30.662;2024-02-15T10:38:44;100605.91;;;2.21;100.00
53689;BME280;39583;54.682;30.662;2024-02-15T10:41:14;100613.50;;;2.45;100.00
53689;BME280;39583;54.682;30.662;2024-02-15T10:43:46;100613.34;;;2.46;100.00
53689;BME280;39583;54.682;30.662;2024-02-15T10:46:15;100603.00;;;2.24;100.00
53689;BME280;39583;54.682;30.662;2024-02-15T10:48:46;100613.06;;;2.30;100.00
53689;BME280;39583;54.682;30.662;2024-02-15T10:51:15;100618.25;;;2.41;100.00
53689;BME280;39583;54.682;30.662;2024-02-15T10:53:59;100608.31;;;2.53;100.00
53689;BME280;39583;54.682;30.662;2024-02-15T10:56:43;100607.06;;;2.57;100.00
53689;BME280;39583;54.682;30.662;2024-02-15T10:59:23;100608.88;;;2.66;100.00
53689;BME280;39583;54.682;30.662;2024-02-15T11:01:59;100611.69;;;2.55;100.00
53689;BME280;39583;54.682;30.662;2024-02-15T11:04:38;100592.94;;;2.37;100.00
53689;BME280;39583;54.682;30.662;2024-02-15T11:07:08;100611.69;;;2.55;100.00
53689;BME280;39583;54.682;30.662;2024-02-15T11:09:39;100614.19;;;2.47;100.00
53689;BME280;39583;54.682;30.662;2024-02-15T11:12:10;100608.31;;;2.53;100.00
53689;BME280;39583;54.682;30.662;2024-02-15T11:14:44;100628.91;;;2.60;100.00
53689;BME280;39583;54.682;30.662;2024-02-15T11:23:03;100614.50;;;2.63;100.00
53689;BME280;39583;54.682;30.662;2024-02-15T11:25:37;100612.53;;;2.55;100.00
53689;BME280;39583;54.682;30.662;2024-02-15T11:30:56;100620.75;;;2.72;100.00
53689;BME280;39583;54.682;30.662;2024-02-15T11:33:31;100608.34;;;2.62;100.00
53689;BME280;39583;54.682;30.662;2024-02-15T11:36:09;100617.81;;;2.46;100.00
53689;BME280;39583;54.682;30.662;2024-02-15T11:38:40;100599.50;;;2.23;100.00
53689;BME280;39583;54.682;30.662;2024-02-15T11:41:18;100613.06;;;2.30;100.00
53689;BME280;39583;54.682;30.662;2024-02-15T11:43:47;100613.22;;;2.38;100.00
53689;BME280;39583;54.682;30.662;2024-02-15T11:46:28;100615.31;;;2.44;100.00
53689;BME280;39583;54.682;30.662;2024-02-15T11:49:01;100609.59;;;2.39;100.00
53689;BME280;39583;54.682;30.662;2024-02-15T11:51:35;100597.81;;;2.32;100.00
53689;BME280;39583;54.682;30.662;2024-02-15T11:54:20;100603.31;;;2.50;100.00
53689;BME280;39583;54.682;30.662;2024-02-15T11:56:55;100596.72;;;2.54;100.00
53689;BME280;39583;54.682;30.662;2024-02-15T11:59:40;100601.19;;;2.53;100.00
53689;BME280;39583;54.682;30.662;2024-02-15T12:02:21;100600.34;;;2.43;100.00
53689;BME280;39583;54.682;30.662;2024-02-15T12:05:08;100602.88;;;2.25;100.00
53689;BME280;39583;54.682;30.662;2024-02-15T12:07:55;100609.28;;;2.23;100.00
53689;BME280;39583;54.682;30.662;2024-02-15T12:10:41;100598.78;;;2.21;100.00
53689;BME280;39583;54.682;30.662;2024-02-15T12:13:28;100601.19;;;2.24;100.00
53689;BME280;39583;54.682;30.662;2024-02-15T12:16:15;100600.50;;;2.22;100.00
53689;BME280;39583;54.682;30.662;2024-02-15T12:19:01;100602.03;;;2.34;100.00
53689;BME280;39583;54.682;30.662;2024-02-15T12:21:31;100604.41;;;2.38;100.00
53689;BME280;39583;54.682;30.662;2024-02-15T12:24:01;100608.06;;;2.36;100.00
53689;BME280;39583;54.682;30.662;2024-02-15T12:26:36;100595.47;;;2.39;100.00
53689;BME280;39583;54.682;30.662;2024-02-15T12:29:05;100614.06;;;2.39;100.00
53689;BME280;39583;54.682;30.662;2024-02-15T12:31:36;100598.22;;;2.47;100.00
53689;BME280;39583;54.682;30.662;2024-02-15T12:34:13;100604.41;;;2.57;100.00
53689;BME280;39583;54.682;30.662;2024-02-15T12:36:46;100602.59;;;2.67;100.00
53689;BME280;39583;54.682;30.662;2024-02-15T12:39:32;100612.09;;;2.70;100.00
53689;BME280;39583;54.682;30.662;2024-02-15T12:42:06;100612.81;;;2.52;100.00
53689;BME280;39583;54.682;30.662;2024-02-15T12:44:42;100607.78;;;2.49;100.00
53689;BME280;39583;54.682;30.662;2024-02-15T12:47:20;100615.31;;;2.44;100.00
53689;BME280;39583;54.682;30.662;2024-02-15T12:49:49;100617.56;;;2.39;100.00
53689;BME280;39583;54.682;30.662;2024-02-15T12:52:39;100626.25;;;2.51;100.00
53689;BME280;39583;54.682;30.662;2024-02-15T12:55:33;100628.19;;;2.58;100.00
53689;BME280;39583;54.682;30.662;2024-02-15T12:58:13;100634.63;;;2.56;100.00
53689;BME280;39583;54.682;30.662;2024-02-15T13:00:50;100535.81;;;1.73;99.83
53689;BME280;39583;54.682;30.662;2024-02-15T13:03:30;100604.38;;;2.09;100.00
53689;BME280;39583;54.682;30.662;2024-02-15T13:06:02;100635.28;;;2.19;100.00
53689;BME280;39583;54.682;30.662;2024-02-15T13:08:38;100627.88;;;2.13;100.00
53689;BME280;39583;54.682;30.662;2024-02-15T13:11:14;100597.03;;;1.72;100.00
53689;BME280;39583;54.682;30.662;2024-02-15T13:13:46;100641.56;;;1.99;100.00
53689;BME280;39583;54.682;30.662;2024-02-15T13:16:18;100644.31;;;1.88;100.00
53689;BME280;39583;54.682;30.662;2024-02-15T13:18:51;100642.63;;;1.87;100.00
53689;BME280;39583;54.682;30.662;2024-02-15T13:21:45;100640.91;;;1.76;100.00
53689;BME280;39583;54.682;30.662;2024-02-15T13:24:21;100639.03;;;1.57;100.00
53689;BME280;39583;54.682;30.662;2024-02-15T13:26:58;100646.47;;;1.42;100.00
53689;BME280;39583;54.682;30.662;2024-02-15T13:29:32;100629.13;;;1.08;100.00
53689;BME280;39583;54.682;30.662;2024-02-15T13:32:03;100654.56;;;1.10;100.00
53689;BME280;39583;54.682;30.662;2024-02-15T13:34:31;100649.94;;;1.12;100.00
53689;BME280;39583;54.682;30.662;2024-02-15T13:37:11;100663.78;;;1.16;100.00
53689;BME280;39583;54.682;30.662;2024-02-15T13:39:41;100656.03;;;1.03;100.00
53689;BME280;39583;54.682;30.662;2024-02-15T13:42:15;100650.06;;;0.90;100.00
53689;BME280;39583;54.682;30.662;2024-02-15T13:44:55;100653.03;;;0.76;100.00
53689;BME280;39583;54.682;30.662;2024-02-15T13:47:32;100655.75;;;0.65;100.00
53689;BME280;39583;54.682;30.662;2024-02-15T13:50:06;100664.06;;;0.60;100.00
53689;BME280;39583;54.682;30.662;2024-02-15T13:52:43;100670.47;;;0.57;100.00
53689;BME280;39583;54.682;30.662;2024-02-15T13:55:19;100669.16;;;0.52;100.00
53689;BME280;39583;54.682;30.662;2024-02-15T13:58:14;100669.09;;;0.42;100.00
53689;BME280;39583;54.682;30.662;2024-02-15T14:00:49;100667.31;;;0.32;100.00
53689;BME280;39583;54.682;30.662;2024-02-15T14:03:25;100656.63;;;0.22;100.00
53689;BME280;39583;54.682;30.662;2024-02-15T14:06:05;100658.41;;;0.21;100.00
53689;BME280;39583;54.682;30.662;2024-02-15T14:08:44;100656.16;;;0.17;100.00
53689;BME280;39583;54.682;30.662;2024-02-15T14:11:15;100660.75;;;0.15;100.00
53689;BME280;39583;54.682;30.662;2024-02-15T14:13:52;100656.28;;;0.15;100.00
53689;BME280;39583;54.682;30.662;2024-02-15T14:16:29;100653.28;;;0.09;100.00
53689;BME280;39583;54.682;30.662;2024-02-15T14:19:19;100661.84;;;0.01;100.00
53689;BME280;39583;54.682;30.662;2024-02-15T14:21:51;100658.47;;;-0.01;100.00
53689;BME280;39583;54.682;30.662;2024-02-15T14:24:28;100666.66;;;-0.04;100.00
53689;BME280;39583;54.682;30.662;2024-02-15T14:27:05;100667.38;;;-0.13;100.00
53689;BME280;39583;54.682;30.662;2024-02-15T14:29:44;100668.59;;;-0.17;100.00
53689;BME280;39583;54.682;30.662;2024-02-15T14:32:32;100659.22;;;-0.21;100.00
53689;BME280;39583;54.682;30.662;2024-02-15T14:35:18;100666.78;;;-0.28;100.00
53689;BME280;39583;54.682;30.662;2024-02-15T14:37:47;100669.22;;;-0.36;100.00
53689;BME280;39583;54.682;30.662;2024-02-15T14:40:16;100663.28;;;-0.40;100.00
53689;BME280;39583;54.682;30.662;2024-02-15T14:42:52;100659.34;;;-0.45;100.00
53689;BME280;39583;54.682;30.662;2024-02-15T14:45:27;100666.94;;;-0.52;100.00
53689;BME280;39583;54.682;30.662;2024-02-15T14:48:10;100671.59;;;-0.55;100.00
53689;BME280;39583;54.682;30.662;2024-02-15T14:50:42;100670.16;;;-0.60;100.00
53689;BME280;39583;54.682;30.662;2024-02-15T14:53:10;100672.31;;;-0.65;100.00
53689;BME280;39583;54.682;30.662;2024-02-15T14:55:39;100668.22;;;-0.69;100.00
53689;BME280;39583;54.682;30.662;2024-02-15T14:58:08;100669.19;;;-0.70;100.00
53689;BME280;39583;54.682;30.662;2024-02-15T15:00:39;100669.28;;;-0.71;100.00
53689;BME280;39583;54.682;30.662;2024-02-15T15:03:16;100659.81;;;-0.74;100.00
53689;BME280;39583;54.682;30.662;2024-02-15T15:05:45;100662.44;;;-0.74;100.00
53689;BME280;39583;54.682;30.662;2024-02-15T15:08:33;100660.25;;;-0.80;100.00
53689;BME280;39583;54.682;30.662;2024-02-15T15:11:26;100666.50;;;-0.81;100.00
53689;BME280;39583;54.682;30.662;2024-02-15T15:14:13;100667.34;;;-0.80;100.00
53689;BME280;39583;54.682;30.662;2024-02-15T15:16:42;100664.09;;;-0.84;100.00
53689;BME280;39583;54.682;30.662;2024-02-15T15:19:10;100666.50;;;-0.81;100.00
53689;BME280;39583;54.682;30.662;2024-02-15T15:21:39;100646.16;;;-0.92;100.00
53689;BME280;39583;54.682;30.662;2024-02-15T15:24:10;100665.66;;;-0.81;100.00
53689;BME280;39583;54.682;30.662;2024-02-15T15:26:39;100666.16;;;-0.87;100.00
53689;BME280;39583;54.682;30.662;2024-02-15T15:29:07;100674.44;;;-0.81;100.00
53689;BME280;39583;54.682;30.662;2024-02-15T15:31:36;100659.31;;;-0.90;100.00
53689;BME280;39583;54.682;30.662;2024-02-15T15:34:04;100674.56;;;-0.82;100.00
53689;BME280;39583;54.682;30.662;2024-02-15T15:36:32;100676.38;;;-0.83;100.00
53689;BME280;39583;54.682;30.662;2024-02-15T15:39:00;100672.88;;;-0.83;100.00
53689;BME280;39583;54.682;30.662;2024-02-15T15:41:38;100681.41;;;-0.80;100.00
53689;BME280;39583;54.682;30.662;2024-02-15T15:44:08;100645.41;;;-1.05;100.00
53689;BME280;39583;54.682;30.662;2024-02-15T15:46:36;100678.03;;;-0.82;100.00
53689;BME280;39583;54.682;30.662;2024-02-15T15:49:05;100679.25;;;-0.86;100.00
53689;BME280;39583;54.682;30.662;2024-02-15T15:51:43;100673.69;;;-0.94;100.00
53689;BME280;39583;54.682;30.662;2024-02-15T15:54:11;100676.00;;;-0.90;100.00
53689;BME280;39583;54.682;30.662;2024-02-15T15:56:39;100679.69;;;-0.92;100.00
53689;BME280;39583;54.682;30.662;2024-02-15T15:59:14;100686.91;;;-0.94;100.00
53689;BME280;39583;54.682;30.662;2024-02-15T16:02:01;100681.97;;;-0.99;100.00
53689;BME280;39583;54.682;30.662;2024-02-15T16:04:32;100680.53;;;-1.03;100.00
53689;BME280;39583;54.682;30.662;2024-02-15T16:07:00;100687.63;;;-1.03;100.00
53689;BME280;39583;54.682;30.662;2024-02-15T16:09:27;100686.78;;;-1.04;100.00
53689;BME280;39583;54.682;30.662;2024-02-15T16:11:56;100690.34;;;-1.05;100.00
53689;BME280;39583;54.682;30.662;2024-02-15T16:14:26;100699.25;;;-1.06;100.00
53689;BME280;39583;54.682;30.662;2024-02-15T16:16:54;100701.28;;;-1.09;100.00
53689;BME280;39583;54.682;30.662;2024-02-15T16:19:22;100704.88;;;-1.10;100.00
53689;BME280;39583;54.682;30.662;2024-02-15T16:21:53;100701.16;;;-1.08;100.00
53689;BME280;39583;54.682;30.662;2024-02-15T16:24:22;100702.25;;;-1.10;100.00
53689;BME280;39583;54.682;30.662;2024-02-15T16:26:56;100705.13;;;-1.13;100.00
53689;BME280;39583;54.682;30.662;2024-02-15T16:29:24;100704.16;;;-1.12;100.00
53689;BME280;39583;54.682;30.662;2024-02-15T16:31:53;100703.94;;;-1.09;100.00
53689;BME280;39583;54.682;30.662;2024-02-15T16:34:21;100714.38;;;-1.08;100.00
53689;BME280;39583;54.682;30.662;2024-02-15T16:36:51;100715.34;;;-1.09;100.00
53689;BME280;39583;54.682;30.662;2024-02-15T16:39:23;100710.91;;;-1.08;100.00
53689;BME280;39583;54.682;30.662;2024-02-15T16:41:54;100712.59;;;-1.07;100.00
53689;BME280;39583;54.682;30.662;2024-02-15T16:44:23;100718.09;;;-1.10;100.00
53689;BME280;39583;54.682;30.662;2024-02-15T16:47:04;100714.84;;;-1.14;100.00
53689;BME280;39583;54.682;30.662;2024-02-15T16:49:37;100716.44;;;-1.11;100.00
53689;BME280;39583;54.682;30.662;2024-02-15T16:52:05;100718.84;;;-1.08;100.00
53689;BME280;39583;54.682;30.662;2024-02-15T16:54:32;100721.34;;;-1.07;100.00
53689;BME280;39583;54.682;30.662;2024-02-15T16:57:00;100724.72;;;-1.05;100.00
53689;BME280;39583;54.682;30.662;2024-02-15T16:59:41;100727.59;;;-1.08;100.00
53689;BME280;39583;54.682;30.662;2024-02-15T17:02:08;100733.72;;;-1.07;100.00
53689;BME280;39583;54.682;30.662;2024-02-15T17:04:36;100739.75;;;-1.05;100.00
53689;BME280;39583;54.682;30.662;2024-02-15T17:07:04;100743.47;;;-1.08;100.00
53689;BME280;39583;54.682;30.662;2024-02-15T17:09:33;100750.44;;;-1.07;100.00
53689;BME280;39583;54.682;30.662;2024-02-15T17:12:00;100747.78;;;-1.07;100.00
53689;BME280;39583;54.682;30.662;2024-02-15T17:14:33;100751.50;;;-1.09;100.00
53689;BME280;39583;54.682;30.662;2024-02-15T17:17:02;100753.31;;;-1.10;100.00
53689;BME280;39583;54.682;30.662;2024-02-15T17:19:33;100757.53;;;-1.07;100.00
53689;BME280;39583;54.682;30.662;2024-02-15T17:22:00;100758.47;;;-1.08;100.00
53689;BME280;39583;54.682;30.662;2024-02-15T17:24:34;100759.31;;;-1.08;100.00
53689;BME280;39583;54.682;30.662;2024-02-15T17:27:02;100759.31;;;-1.08;100.00
53689;BME280;39583;54.682;30.662;2024-02-15T17:29:30;100767.25;;;-1.08;100.00
53689;BME280;39583;54.682;30.662;2024-02-15T17:31:57;100763.88;;;-1.10;100.00
53689;BME280;39583;54.682;30.662;2024-02-15T17:34:26;100761.25;;;-1.10;100.00
53689;BME280;39583;54.682;30.662;2024-02-15T17:36:54;100756.50;;;-1.17;100.00
53689;BME280;39583;54.682;30.662;2024-02-15T17:39:22;100765.91;;;-1.13;100.00
53689;BME280;39583;54.682;30.662;2024-02-15T17:41:52;100761.59;;;-1.14;100.00
53689;BME280;39583;54.682;30.662;2024-02-15T17:44:21;100762.44;;;-1.14;100.00
53689;BME280;39583;54.682;30.662;2024-02-15T17:46:50;100761.59;;;-1.14;100.00
53689;BME280;39583;54.682;30.662;2024-02-15T17:49:19;100768.16;;;-1.20;100.00
53689;BME280;39583;54.682;30.662;2024-02-15T17:51:47;100761.31;;;-1.23;100.00
53689;BME280;39583;54.682;30.662;2024-02-15T17:54:15;100761.31;;;-1.23;100.00
53689;BME280;39583;54.682;30.662;2024-02-15T17:56:43;100760.69;;;-1.26;100.00
53689;BME280;39583;54.682;30.662;2024-02-15T17:59:11;100765.38;;;-1.30;100.00
53689;BME280;39583;54.682;30.662;2024-02-15T18:01:38;100758.47;;;-1.32;100.00
53689;BME280;39583;54.682;30.662;2024-02-15T18:04:09;100764.72;;;-1.33;100.00
53689;BME280;39583;54.682;30.662;2024-02-15T18:06:39;100760.28;;;-1.33;100.00
53689;BME280;39583;54.682;30.662;2024-02-15T18:09:07;100753.31;;;-1.34;100.00
53689;BME280;39583;54.682;30.662;2024-02-15T18:11:35;100759.66;;;-1.36;100.00
53689;BME280;39583;54.682;30.662;2024-02-15T18:14:09;100762.44;;;-1.38;100.00
53689;BME280;39583;54.682;30.662;2024-02-15T18:16:52;100768.56;;;-1.37;100.00
53689;BME280;39583;54.682;30.662;2024-02-15T18:19:24;100763.38;;;-1.39;100.00
53689;BME280;39583;54.682;30.662;2024-02-15T18:21:54;100764.84;;;-1.35;100.00
53689;BME280;39583;54.682;30.662;2024-02-15T18:24:29;100751.75;;;-1.36;100.00
53689;BME280;39583;54.682;30.662;2024-02-15T18:27:04;100763.38;;;-1.39;100.00
53689;BME280;39583;54.682;30.662;2024-02-15T18:29:47;100760.75;;;-1.39;100.00
53689;BME280;39583;54.682;30.662;2024-02-15T18:32:15;100748.06;;;-1.46;100.00
53689;BME280;39583;54.682;30.662;2024-02-15T18:34:50;100756.91;;;-1.35;100.00
53689;BME280;39583;54.682;30.662;2024-02-15T18:37:21;100766.75;;;-1.37;100.00
53689;BME280;39583;54.682;30.662;2024-02-15T18:39:51;100755.78;;;-1.43;100.00
53689;BME280;39583;54.682;30.662;2024-02-15T18:42:22;100762.84;;;-1.44;100.00
53689;BME280;39583;54.682;30.662;2024-02-15T18:44:53;100758.66;;;-1.46;100.00
53689;BME280;39583;54.682;30.662;2024-02-15T18:47:23;100753.47;;;-1.48;100.00
53689;BME280;39583;54.682;30.662;2024-02-15T18:49:56;100752.88;;;-1.52;100.00
53689;BME280;39583;54.682;30.662;2024-02-15T18:52:28;100752.03;;;-1.52;100.00
53689;BME280;39583;54.682;30.662;2024-02-15T18:55:00;100758.25;;;-1.53;100.00
53689;BME280;39583;54.682;30.662;2024-02-15T18:57:31;100749.25;;;-1.51;100.00
53689;BME280;39583;54.682;30.662;2024-02-15T19:00:03;100750.94;;;-1.50;100.00
53689;BME280;39583;54.682;30.662;2024-02-15T19:02:51;100727.63;;;-1.56;100.00
53689;BME280;39583;54.682;30.662;2024-02-15T19:05:20;100740.25;;;-1.48;100.00
53689;BME280;39583;54.682;30.662;2024-02-15T19:07:58;100721.16;;;-1.52;100.00
53689;BME280;39583;54.682;30.662;2024-02-15T19:10:29;100725.50;;;-1.51;100.00
53689;BME280;39583;54.682;30.662;2024-02-15T19:12:59;100714.50;;;-1.57;100.00
53689;BME280;39583;54.682;30.662;2024-02-15T19:15:30;100723.38;;;-1.58;100.00
53689;BME280;39583;54.682;30.662;2024-02-15T19:18:02;100721.44;;;-1.67;100.00
53689;BME280;39583;54.682;30.662;2024-02-15T19:20:35;100723.84;;;-1.64;100.00
53689;BME280;39583;54.682;30.662;2024-02-15T19:23:05;100715.94;;;-1.64;100.00
53689;BME280;39583;54.682;30.662;2024-02-15T19:25:36;100722.72;;;-1.73;100.00
53689;BME280;39583;54.682;30.662;2024-02-15T19:28:07;100717.03;;;-1.80;100.00
53689;BME280;39583;54.682;30.662;2024-02-15T19:30:38;100721.38;;;-1.79;100.00
53689;BME280;39583;54.682;30.662;2024-02-15T19:33:09;100692.34;;;-1.91;100.00
53689;BME280;39583;54.682;30.662;2024-02-15T19:35:37;100711.66;;;-1.78;100.00
53689;BME280;39583;54.682;30.662;2024-02-15T19:38:05;100718.72;;;-1.79;100.00
53689;BME280;39583;54.682;30.662;2024-02-15T19:40:32;100720.53;;;-1.79;100.00
53689;BME280;39583;54.682;30.662;2024-02-15T19:43:00;100724.97;;;-1.80;100.00
53689;BME280;39583;54.682;30.662;2024-02-15T19:45:28;100724.13;;;-1.80;100.00
53689;BME280;39583;54.682;30.662;2024-02-15T19:47:59;100724.31;;;-1.83;100.00
53689;BME280;39583;54.682;30.662;2024-02-15T19:50:28;100724.75;;;-1.89;100.00
53689;BME280;39583;54.682;30.662;2024-02-15T19:52:57;100724.75;;;-1.89;100.00
53689;BME280;39583;54.682;30.662;2024-02-15T19:55:26;100732.47;;;-1.86;100.00
53689;BME280;39583;54.682;30.662;2024-02-15T19:57:56;100726.22;;;-1.85;100.00
53689;BME280;39583;54.682;30.662;2024-02-15T20:00:25;100721.28;;;-1.90;100.00
53689;BME280;39583;54.682;30.662;2024-02-15T20:02:54;100736.25;;;-1.77;100.00
53689;BME280;39583;54.682;30.662;2024-02-15T20:05:23;100734.22;;;-1.74;100.00
53689;BME280;39583;54.682;30.662;2024-02-15T20:07:52;100737.09;;;-1.77;100.00
53689;BME280;39583;54.682;30.662;2024-02-15T20:10:24;100733.94;;;-1.82;100.00
53689;BME280;39583;54.682;30.662;2024-02-15T20:12:59;100716.97;;;-1.91;100.00
53689;BME280;39583;54.682;30.662;2024-02-15T20:15:27;100737.31;;;-1.80;100.00
53689;BME280;39583;54.682;30.662;2024-02-15T20:17:58;100742.59;;;-1.80;100.00
53689;BME280;39583;54.682;30.662;2024-02-15T20:20:28;100740.91;;;-1.81;100.00
53689;BME280;39583;54.682;30.662;2024-02-15T20:22:58;100742.91;;;-1.85;100.00
53689;BME280;39583;54.682;30.662;2024-02-15T20:25:32;100736.91;;;-1.87;100.00